Time;durP1;ratioP1;P1;durP2;ratioP2;P2;SDS_P1;SDS_P2;PMS_P1;PMS_P2;Temp;Humidity;BMP_temperature;BMP_pressure;BME280_temperature;BME280_humidity;BME280_pressure;Samples;Min_cycle;Max_cycle;Signal;HPM_P1;HPM_P2
2020/12/08 00:01:49;;;;;;;42.63;19.63;;;;;;;10.22;57.04;100339.72;5000576;28;20030;-71
2020/12/08 00:04:15;;;;;;;44.47;19.08;;;;;;;10.33;56.67;100337.00;4988225;28;20092;-72
2020/12/08 00:06:41;;;;;;;40.75;19.30;;;;;;;10.33;56.69;100334.41;4988337;28;20030;-71
2020/12/08 00:09:06;;;;;;;46.85;19.42;;;;;;;10.28;56.63;100338.78;4990569;28;20034;-71
2020/12/08 00:11:32;;;;;;;41.33;19.05;;;;;;;10.26;57.04;100333.63;4986374;28;20448;-71
2020/12/08 00:13:57;;;;;;;42.85;20.27;;;;;;;10.18;56.83;100338.09;4990720;28;20038;-72
2020/12/08 00:16:23;;;;;;;44.95;20.20;;;;;;;10.24;56.90;100340.56;4986959;28;20102;-72
2020/12/08 00:18:48;;;;;;;41.25;18.98;;;;;;;10.12;57.04;100343.38;4988355;28;20084;-71
2020/12/08 00:21:14;;;;;;;45.25;18.45;;;;;;;9.94;57.57;100347.13;4993579;28;20735;-71
2020/12/08 00:23:39;;;;;;;41.05;19.35;;;;;;;10.09;57.34;100341.69;4994059;28;20018;-72
2020/12/08 00:26:05;;;;;;;44.25;18.63;;;;;;;10.10;57.16;100348.56;4989371;28;20026;-71
2020/12/08 00:28:32;;;;;;;37.45;17.67;;;;;;;9.96;57.56;100340.19;4987128;28;20088;-71
2020/12/08 00:30:58;;;;;;;40.88;18.40;;;;;;;10.04;57.24;100346.06;4985010;28;20115;-72
2020/12/08 00:33:23;;;;;;;44.22;17.63;;;;;;;9.99;57.31;100340.13;4985312;28;20113;-71
2020/12/08 00:35:49;;;;;;;40.25;18.75;;;;;;;9.79;57.75;100343.06;4992003;28;20637;-70
2020/12/08 00:38:14;;;;;;;44.65;19.45;;;;;;;9.76;58.08;100338.78;4993056;28;20045;-73
2020/12/08 00:40:40;;;;;;;43.35;18.45;;;;;;;10.00;57.44;100347.00;4988523;28;20069;-73
2020/12/08 00:43:06;;;;;;;33.95;18.02;;;;;;;9.64;58.30;100338.97;4995129;28;20038;-72
2020/12/08 00:45:31;;;;;;;38.53;18.75;;;;;;;9.77;57.79;100349.97;4996961;28;20034;-72
2020/12/08 00:47:57;;;;;;;37.25;18.13;;;;;;;9.58;57.91;100341.66;4987135;28;20148;-70
2020/12/08 00:50:23;;;;;;;42.72;18.83;;;;;;;9.74;57.83;100340.53;4989360;28;20042;-70
2020/12/08 00:52:48;;;;;;;37.63;18.80;;;;;;;9.66;58.08;100341.53;4988449;28;20030;-71
2020/12/08 00:55:15;;;;;;;36.67;16.42;;;;;;;9.55;58.24;100331.38;4996421;28;20030;-72
2020/12/08 00:57:43;;;;;;;33.58;17.42;;;;;;;9.89;57.36;100339.47;4982798;28;20081;-71
2020/12/08 01:00:11;;;;;;;41.38;18.73;;;;;;;9.83;57.46;100346.44;4992989;28;20852;-71
2020/12/08 01:02:42;;;;;;;42.78;18.27;;;;;;;9.49;57.88;100352.97;4989750;28;20050;-71
2020/12/08 01:05:11;;;;;;;38.65;17.35;;;;;;;9.77;57.33;100355.97;4991171;28;20072;-72
2020/12/08 01:07:38;;;;;;;37.85;17.77;;;;;;;10.07;56.51;100348.63;4994150;28;20038;-71
2020/12/08 01:10:05;;;;;;;45.28;17.95;;;;;;;10.02;56.53;100349.56;4970857;28;20034;-70
2020/12/08 01:12:31;;;;;;;36.70;16.92;;;;;;;9.97;56.77;100341.91;5006938;28;20026;-70
2020/12/08 01:14:58;;;;;;;36.25;17.58;;;;;;;9.76;57.36;100359.44;4989834;28;20504;-71
2020/12/08 01:17:25;;;;;;;40.83;16.85;;;;;;;9.81;57.25;100356.78;4991440;28;20030;-71
2020/12/08 01:19:51;;;;;;;36.17;17.30;;;;;;;9.73;57.26;100361.22;5003989;28;20033;-70
2020/12/08 01:22:17;;;;;;;42.35;19.70;;;;;;;9.68;57.53;100361.28;4990316;28;20115;-72
2020/12/08 01:24:42;;;;;;;35.47;18.20;;;;;;;9.91;56.79;100360.06;4975249;28;20049;-71
2020/12/08 01:27:09;;;;;;;37.47;17.40;;;;;;;9.91;56.74;100357.47;4987741;28;20037;-70
2020/12/08 01:29:35;;;;;;;35.42;18.30;;;;;;;9.50;57.79;100367.56;4984570;28;20496;-71
2020/12/08 01:32:04;;;;;;;42.47;19.40;;;;;;;9.53;57.88;100362.38;4966325;28;20039;-73
2020/12/08 01:34:30;;;;;;;41.22;18.33;;;;;;;9.62;57.47;100371.69;4989668;28;20045;-73
2020/12/08 01:36:58;;;;;;;40.50;17.50;;;;;;;9.79;57.10;100368.00;4988489;28;20038;-72
2020/12/08 01:39:24;;;;;;;39.20;18.60;;;;;;;9.74;57.05;100371.50;4982974;28;20761;-71
2020/12/08 01:41:54;;;;;;;38.10;17.15;;;;;;;9.54;57.79;100369.22;4993353;28;20210;-70
2020/12/08 01:44:20;;;;;;;40.50;17.75;;;;;;;9.55;57.70;100377.81;4990614;28;20042;-73
2020/12/08 01:46:46;;;;;;;42.35;19.40;;;;;;;9.75;57.12;100374.94;4994786;28;20455;-71
2020/12/08 01:49:12;;;;;;;40.70;18.33;;;;;;;9.67;57.23;100385.38;5001062;28;20084;-70
2020/12/08 01:51:40;;;;;;;34.25;16.20;;;;;;;9.51;57.29;100389.94;4989773;28;20108;-72
2020/12/08 01:54:06;;;;;;;42.58;18.85;;;;;;;9.66;57.27;100388.00;4988570;28;20054;-73
2020/12/08 01:56:40;;;;;;;41.92;18.92;;;;;;;9.48;57.51;100394.25;4971638;28;20035;-73
2020/12/08 01:59:08;;;;;;;44.35;17.85;;;;;;;9.50;57.43;100392.53;4987420;28;20034;-73
2020/12/08 02:01:36;;;;;;;40.80;19.98;;;;;;;9.51;57.56;100386.47;4987040;28;20030;-70
2020/12/08 02:04:03;;;;;;;39.83;18.80;;;;;;;9.52;57.68;100390.78;4988102;28;20026;-70
2020/12/08 02:06:28;;;;;;;38.95;17.98;;;;;;;9.33;57.98;100385.88;4991206;28;20026;-71
2020/12/08 02:08:56;;;;;;;37.50;17.45;;;;;;;9.70;57.28;100389.66;4991462;28;20038;-70
2020/12/08 02:11:29;;;;;;;42.78;20.17;;;;;;;9.50;57.70;100395.94;5002654;28;20042;-71
2020/12/08 02:13:56;;;;;;;33.35;17.70;;;;;;;9.26;58.46;100386.81;4990779;28;20109;-70
2020/12/08 02:16:22;;;;;;;34.00;18.15;;;;;;;9.53;57.37;100392.47;4988641;28;20117;-71
2020/12/08 02:18:49;;;;;;;39.38;18.38;;;;;;;9.56;57.49;100395.03;4986366;28;20030;-71
2020/12/08 02:21:15;;;;;;;35.67;18.10;;;;;;;9.44;57.72;100398.59;4991203;28;20547;-70
2020/12/08 02:24:24;;;;;;;41.80;17.65;;;;;;;9.33;58.04;100396.19;4990730;28;20692;-70
2020/12/08 02:26:49;;;;;;;37.88;15.98;;;;;;;9.49;57.59;100396.84;4986463;28;20072;-71
2020/12/08 02:29:18;;;;;;;41.17;17.05;;;;;;;9.47;57.43;100402.91;4989819;28;20042;-71
2020/12/08 02:31:44;;;;;;;39.55;17.38;;;;;;;9.47;57.74;100406.31;4991808;28;20073;-71
2020/12/08 02:34:14;;;;;;;41.75;19.15;;;;;;;9.34;58.03;100404.78;4995889;28;20039;-72
2020/12/08 02:36:39;;;;;;;42.75;18.15;;;;;;;9.49;57.35;100407.16;4993494;28;20035;-71
2020/12/08 02:39:06;;;;;;;37.00;17.77;;;;;;;9.43;57.61;100401.22;5007243;28;20022;-72
2020/12/08 02:41:32;;;;;;;36.78;16.35;;;;;;;9.44;57.50;100401.19;5002521;28;20426;-71
2020/12/08 02:43:59;;;;;;;37.28;17.48;;;;;;;9.48;57.37;100407.16;4994912;28;20528;-71
2020/12/08 02:46:24;;;;;;;34.92;16.75;;;;;;;9.35;57.73;100412.50;4987939;28;20034;-72
2020/12/08 02:48:53;;;;;;;43.78;18.33;;;;;;;9.10;58.47;100404.22;4988269;28;20126;-71
2020/12/08 02:51:22;;;;;;;40.53;18.05;;;;;;;9.42;57.75;100415.84;4989032;28;20121;-72
2020/12/08 02:53:53;;;;;;;36.20;16.88;;;;;;;9.34;57.88;100413.38;4988445;28;20026;-72
2020/12/08 02:56:24;;;;;;;44.25;17.92;;;;;;;9.43;57.48;100416.69;5009673;28;20042;-72
2020/12/08 02:58:49;;;;;;;37.00;16.98;;;;;;;9.15;57.98;100422.19;4993992;28;20030;-71
2020/12/08 03:01:18;;;;;;;40.42;16.98;;;;;;;9.26;57.73;100420.34;4995117;28;20057;-71
2020/12/08 03:03:44;;;;;;;41.83;15.98;;;;;;;9.28;57.46;100421.16;4990414;28;20038;-71
2020/12/08 03:06:10;;;;;;;40.50;18.60;;;;;;;9.27;57.59;100422.06;4993507;28;20027;-71
2020/12/08 03:08:35;;;;;;;36.83;16.40;;;;;;;9.20;57.52;100423.00;4994799;28;20029;-72
2020/12/08 03:11:01;;;;;;;33.08;15.38;;;;;;;9.21;57.66;100429.88;4992159;28;20083;-71
2020/12/08 03:13:29;;;;;;;37.58;16.63;;;;;;;9.28;57.36;100428.06;4996974;28;20040;-72
2020/12/08 03:15:55;;;;;;;39.60;17.15;;;;;;;9.26;57.36;100410.03;4978839;28;20063;-71
2020/12/08 03:18:21;;;;;;;33.97;14.70;;;;;;;9.23;57.29;100415.22;4994841;28;20586;-72
2020/12/08 03:20:46;;;;;;;36.08;16.00;;;;;;;9.20;57.43;100415.28;4976027;28;20030;-72
2020/12/08 03:23:13;;;;;;;36.88;15.25;;;;;;;9.07;57.90;100416.31;4996810;28;20515;-72
2020/12/08 03:25:41;;;;;;;33.08;14.82;;;;;;;9.33;56.88;100421.97;4997552;28;20513;-71
2020/12/08 03:28:09;;;;;;;34.45;14.82;;;;;;;9.27;57.31;100421.22;5003112;28;20403;-71
2020/12/08 03:30:38;;;;;;;36.67;15.95;;;;;;;9.32;57.27;100420.25;4989682;28;20086;-71
2020/12/08 03:33:04;;;;;;;37.00;16.30;;;;;;;9.45;56.66;100425.28;4992538;28;20116;-72
2020/12/08 03:35:29;;;;;;;33.90;15.40;;;;;;;9.45;56.38;100425.28;4992883;28;20026;-71
2020/12/08 03:37:56;;;;;;;30.33;14.00;;;;;;;9.40;56.53;100411.56;4991671;28;20034;-72
2020/12/08 03:40:22;;;;;;;28.45;14.35;;;;;;;9.38;56.63;100418.47;5009723;28;20719;-70
2020/12/08 03:42:47;;;;;;;31.52;14.38;;;;;;;9.24;56.85;100416.94;4993730;28;20029;-72
2020/12/08 03:45:15;;;;;;;38.83;17.33;;;;;;;9.18;57.35;100427.34;4993343;28;20058;-72
2020/12/08 03:47:50;;;;;;;26.35;13.25;;;;;;;9.17;57.09;100423.03;4986835;28;20411;-72
2020/12/08 03:50:20;;;;;;;31.17;14.07;;;;;;;9.27;56.51;100423.78;4993496;28;20500;-71
2020/12/08 03:52:45;;;;;;;28.83;14.00;;;;;;;9.09;57.37;100412.81;4992799;28;20030;-71
2020/12/08 03:55:11;;;;;;;30.67;13.52;;;;;;;9.38;56.44;100421.03;4989967;28;20034;-72
2020/12/08 03:57:37;;;;;;;25.45;12.90;;;;;;;9.37;56.38;100416.78;4993751;28;20396;-71
2020/12/08 04:00:07;;;;;;;26.15;13.00;;;;;;;9.40;56.38;100419.31;4986891;28;20062;-71
2020/12/08 04:02:38;;;;;;;26.60;13.27;;;;;;;9.43;56.21;100419.28;4990753;28;20391;-71
2020/12/08 04:05:05;;;;;;;27.73;13.88;;;;;;;9.45;56.32;100420.13;4991278;28;20085;-73
2020/12/08 04:07:30;;;;;;;28.98;12.85;;;;;;;9.28;56.51;100416.00;4993433;28;20589;-71
2020/12/08 04:09:56;;;;;;;30.85;12.68;;;;;;;9.39;56.27;100426.19;4994231;28;20030;-71
2020/12/08 04:12:23;;;;;;;28.15;13.25;;;;;;;9.17;56.52;100420.44;4994052;28;20038;-71
2020/12/08 04:14:48;;;;;;;24.30;12.32;;;;;;;9.15;56.77;100432.50;4990544;28;20508;-71
2020/12/08 04:17:20;;;;;;;28.23;12.82;;;;;;;8.94;57.45;100426.75;4993481;28;20044;-72
2020/12/08 04:19:49;;;;;;;27.42;12.77;;;;;;;9.28;56.52;100422.91;4987331;28;20030;-71
2020/12/08 04:22:16;;;;;;;28.60;13.05;;;;;;;9.16;56.94;100426.50;4990553;28;20284;-71
2020/12/08 04:24:46;;;;;;;26.00;11.63;;;;;;;9.38;56.26;100433.94;4992245;28;20046;-71
2020/12/08 04:27:12;;;;;;;24.65;12.15;;;;;;;9.51;55.64;100431.22;4995357;28;20030;-71
2020/12/08 04:29:46;;;;;;;26.83;12.18;;;;;;;9.35;56.29;100424.53;4993439;28;20032;-71
2020/12/08 04:32:13;;;;;;;25.80;11.57;;;;;;;9.46;55.86;100432.97;4988372;28;20042;-71
2020/12/08 04:34:38;;;;;;;27.60;12.15;;;;;;;9.46;56.08;100442.44;4990327;28;20044;-71
2020/12/08 04:37:03;;;;;;;28.67;13.27;;;;;;;9.54;55.46;100440.63;4997029;28;20031;-71
2020/12/08 04:39:29;;;;;;;27.17;11.40;;;;;;;9.35;56.09;100443.47;4996023;28;20037;-71
2020/12/08 04:41:55;;;;;;;26.13;11.65;;;;;;;9.37;56.30;100447.72;4991447;28;20041;-71
2020/12/08 04:44:21;;;;;;;28.90;12.52;;;;;;;9.26;56.41;100443.53;4992534;28;20048;-71
2020/12/08 04:46:54;;;;;;;25.08;11.93;;;;;;;9.31;56.64;100443.47;4985946;28;20414;-70
2020/12/08 04:49:22;;;;;;;22.65;11.68;;;;;;;9.35;56.30;100435.72;4989646;28;20050;-71
2020/12/08 04:51:48;;;;;;;23.80;11.93;;;;;;;9.37;56.21;100447.72;4990648;28;20038;-72
2020/12/08 04:54:13;;;;;;;22.00;11.15;;;;;;;9.28;56.32;100449.53;4989081;28;20049;-71
2020/12/08 04:56:42;;;;;;;25.95;11.60;;;;;;;9.24;56.43;100453.06;4992259;28;20034;-72
2020/12/08 04:59:08;;;;;;;23.05;11.70;;;;;;;9.39;56.00;100452.00;4984916;28;20045;-71
2020/12/08 05:01:33;;;;;;;25.70;12.73;;;;;;;9.40;55.96;100452.84;4991306;28;20023;-71
2020/12/08 05:04:00;;;;;;;24.13;12.35;;;;;;;9.38;55.96;100452.00;4988050;28;20497;-72
2020/12/08 05:06:30;;;;;;;24.90;11.43;;;;;;;9.26;56.28;100442.69;4985840;28;20046;-71
2020/12/08 05:09:08;;;;;;;23.55;11.23;;;;;;;9.33;56.05;100449.47;4994246;28;20059;-71
2020/12/08 05:11:34;;;;;;;22.73;12.15;;;;;;;9.30;56.06;100454.69;4990057;28;20027;-71
2020/12/08 05:14:05;;;;;;;24.75;11.07;;;;;;;9.20;56.64;100453.06;4990396;28;20050;-71
2020/12/08 05:16:32;;;;;;;25.90;12.23;;;;;;;9.23;56.38;100451.31;5002165;28;20031;-72
2020/12/08 05:19:07;;;;;;;28.20;12.10;;;;;;;9.22;56.33;100454.78;4988985;28;20030;-71
2020/12/08 05:21:33;;;;;;;22.05;11.43;;;;;;;9.17;56.17;100448.81;4986012;28;20033;-72
2020/12/08 05:23:58;;;;;;;25.92;11.35;;;;;;;9.10;56.42;100447.19;4992709;28;20030;-71
2020/12/08 05:26:24;;;;;;;23.17;11.23;;;;;;;9.03;56.42;100453.28;4994868;28;20121;-71
2020/12/08 05:28:58;;;;;;;26.83;11.77;;;;;;;8.99;56.62;100454.19;4988612;28;20066;-72
2020/12/08 05:31:27;;;;;;;26.55;13.57;;;;;;;8.93;56.69;100460.28;4989206;28;20046;-72
2020/12/08 05:33:58;;;;;;;23.92;11.77;;;;;;;8.93;56.59;100458.56;4988091;28;20720;-72
2020/12/08 05:36:27;;;;;;;23.70;12.23;;;;;;;8.85;56.80;100451.78;4990404;28;20493;-71
2020/12/08 05:38:59;;;;;;;32.15;12.93;;;;;;;8.80;57.04;100466.44;4990029;28;20045;-72
2020/12/08 05:41:28;;;;;;;24.88;11.70;;;;;;;8.92;56.38;100455.97;4988333;28;20055;-70
2020/12/08 05:44:03;;;;;;;25.45;11.88;;;;;;;8.89;56.15;100462.03;4991133;28;20042;-71
2020/12/08 05:46:38;;;;;;;22.52;11.43;;;;;;;8.79;56.30;100462.97;4986769;28;20514;-71
2020/12/08 05:49:04;;;;;;;26.83;12.52;;;;;;;8.77;56.31;100463.88;4985810;28;20026;-71
2020/12/08 05:51:30;;;;;;;30.25;12.40;;;;;;;8.71;56.32;100464.81;4989125;28;20480;-71
2020/12/08 05:53:56;;;;;;;25.77;12.50;;;;;;;8.71;56.31;100463.06;4991591;28;20388;-73
2020/12/08 05:56:21;;;;;;;27.63;11.02;;;;;;;8.70;56.12;100461.34;4986297;28;20030;-72
2020/12/08 05:58:54;;;;;;;28.00;11.57;;;;;;;8.66;55.92;100458.81;4993657;28;20114;-71
2020/12/08 06:01:19;;;;;;;25.60;11.50;;;;;;;8.58;55.82;100461.47;4988427;28;20114;-70
2020/12/08 06:03:53;;;;;;;22.13;10.80;;;;;;;8.51;55.89;100464.97;4991003;28;20855;-71
2020/12/08 06:06:18;;;;;;;22.88;10.02;;;;;;;8.39;55.95;100465.88;4991364;28;20117;-71
2020/12/08 06:08:45;;;;;;;22.23;10.43;;;;;;;8.37;55.80;100472.78;4988571;28;20522;-72
2020/12/08 06:11:11;;;;;;;23.05;10.98;;;;;;;8.15;56.15;100466.97;4989488;28;20045;-71
2020/12/08 06:13:45;;;;;;;21.55;9.60;;;;;;;8.03;56.60;100483.31;4972124;28;20041;-70
2020/12/08 06:16:17;;;;;;;20.67;9.68;;;;;;;8.08;56.09;100478.16;4985798;28;20034;-72
2020/12/08 06:18:43;;;;;;;20.63;11.05;;;;;;;8.07;56.05;100477.28;4985752;28;20038;-72
2020/12/08 06:21:23;;;;;;;17.40;8.98;;;;;;;8.10;55.64;100479.00;4988516;28;20490;-71
2020/12/08 06:23:52;;;;;;;27.40;12.00;;;;;;;7.96;55.85;100484.25;4998271;28;20031;-71
2020/12/08 06:26:29;;;;;;;21.38;10.20;;;;;;;7.86;56.53;100485.19;4986666;28;20583;-71
2020/12/08 06:28:55;;;;;;;21.80;10.00;;;;;;;7.94;56.20;100488.53;4991644;28;20029;-71
2020/12/08 06:31:22;;;;;;;21.30;10.30;;;;;;;7.66;56.90;100490.44;4986362;28;20046;-71
2020/12/08 06:33:50;;;;;;;22.73;10.70;;;;;;;7.87;57.58;100487.72;4996588;28;20040;-72
2020/12/08 06:36:17;;;;;;;25.23;12.30;;;;;;;8.00;57.55;100483.34;4989194;28;20073;-72
2020/12/08 06:38:42;;;;;;;27.08;12.95;;;;;;;8.19;57.33;100478.91;4988562;28;20049;-72
2020/12/08 06:41:08;;;;;;;26.48;12.57;;;;;;;8.20;57.25;100490.94;4990200;28;20030;-73
2020/12/08 06:43:44;;;;;;;27.85;12.70;;;;;;;8.15;57.82;100496.97;4988935;28;20029;-73
2020/12/08 06:46:11;;;;;;;25.38;11.43;;;;;;;8.20;57.91;100510.69;4987976;28;20042;-73
2020/12/08 06:48:38;;;;;;;31.83;13.27;;;;;;;8.33;57.79;100507.16;4992959;28;20029;-72
2020/12/08 06:51:15;;;;;;;24.77;12.27;;;;;;;8.37;57.49;100507.97;4981614;28;20081;-70
2020/12/08 06:53:41;;;;;;;26.00;12.77;;;;;;;8.34;58.04;100508.84;5004257;28;20077;-71
2020/12/08 06:56:06;;;;;;;25.20;12.52;;;;;;;8.37;58.15;100513.97;4991907;28;20475;-72
2020/12/08 06:58:32;;;;;;;29.15;13.05;;;;;;;8.44;58.25;100509.66;4991250;28;20029;-72
2020/12/08 07:01:07;;;;;;;27.42;13.05;;;;;;;8.57;57.77;100513.00;4991354;28;20173;-74
2020/12/08 07:03:37;;;;;;;27.73;13.30;;;;;;;8.61;57.84;100514.69;4988062;28;20030;-70
2020/12/08 07:06:04;;;;;;;26.67;12.65;;;;;;;8.68;57.69;100518.91;4970927;28;20096;-70
2020/12/08 07:08:30;;;;;;;26.27;12.60;;;;;;;8.90;56.69;100519.56;4993563;28;20643;-71
2020/12/08 07:10:55;;;;;;;27.40;12.60;;;;;;;8.79;56.98;100521.41;4991061;28;20125;-71
2020/12/08 07:13:21;;;;;;;21.05;11.20;;;;;;;8.92;56.54;100523.00;4997082;28;20122;-71
2020/12/08 07:15:47;;;;;;;26.33;13.00;;;;;;;9.00;56.09;100522.91;4989562;28;20392;-70
2020/12/08 07:18:12;;;;;;;27.05;12.30;;;;;;;9.04;55.91;100532.31;4990739;28;20029;-71
2020/12/08 07:20:40;;;;;;;29.02;11.93;;;;;;;8.87;56.55;100528.19;5004148;28;20697;-71
2020/12/08 07:23:07;;;;;;;21.88;10.55;;;;;;;9.07;56.06;100532.31;4991528;28;20377;-71
2020/12/08 07:25:34;;;;;;;21.98;10.93;;;;;;;9.02;56.05;100534.06;4991205;28;20038;-71
2020/12/08 07:28:00;;;;;;;25.52;13.20;;;;;;;8.99;56.29;100528.94;4991285;28;20443;-71
2020/12/08 07:30:27;;;;;;;25.83;12.27;;;;;;;8.81;56.70;100527.41;4995912;28;20037;-70
2020/12/08 07:32:55;;;;;;;24.50;12.20;;;;;;;8.69;56.95;100531.78;5001667;28;20026;-71
2020/12/08 07:35:28;;;;;;;26.35;11.40;;;;;;;8.65;57.32;100534.41;4996404;28;20038;-71
2020/12/08 07:37:56;;;;;;;21.42;12.07;;;;;;;8.78;57.12;100541.16;4993357;28;20038;-71
2020/12/08 07:40:22;;;;;;;21.80;11.70;;;;;;;8.75;57.33;100536.03;4978280;28;20045;-71
2020/12/08 07:42:51;;;;;;;25.40;11.70;;;;;;;8.64;57.39;100540.41;4976971;28;20041;-71
2020/12/08 07:45:18;;;;;;;25.73;12.50;;;;;;;8.77;56.92;100538.59;4994007;28;20500;-71
2020/12/08 07:47:46;;;;;;;20.25;11.02;;;;;;;8.73;57.35;100545.50;4991408;28;20037;-71
2020/12/08 07:50:29;;;;;;;68.47;18.35;;;;;;;8.76;57.42;100542.06;4991460;28;20647;-70
2020/12/08 07:53:06;;;;;;;24.17;10.77;;;;;;;8.83;56.89;100536.81;4995891;28;20072;-70
2020/12/08 07:55:43;;;;;;;26.23;12.65;;;;;;;8.97;56.69;100530.69;4991113;28;20310;-71
2020/12/08 07:58:09;;;;;;;27.20;12.65;;;;;;;9.11;56.27;100534.00;4987039;28;20537;-71
2020/12/08 08:00:35;;;;;;;24.92;12.23;;;;;;;9.17;55.91;100533.91;4991991;28;20045;-71
2020/12/08 08:03:00;;;;;;;26.25;11.82;;;;;;;8.96;56.39;100536.72;4989221;28;20121;-71
2020/12/08 08:05:26;;;;;;;25.52;11.63;;;;;;;8.86;56.77;100538.50;4981229;28;20103;-71
2020/12/08 08:07:51;;;;;;;23.90;13.23;;;;;;;9.16;55.95;100544.25;4995012;28;20383;-73
2020/12/08 08:10:17;;;;;;;23.67;11.95;;;;;;;9.32;55.61;100549.22;4991383;28;20038;-71
2020/12/08 08:12:42;;;;;;;20.70;11.65;;;;;;;9.22;55.94;100552.78;4999396;28;20438;-71
2020/12/08 08:15:09;;;;;;;21.60;11.45;;;;;;;9.14;55.98;100549.41;4994768;28;20042;-72
2020/12/08 08:17:34;;;;;;;20.27;10.80;;;;;;;9.35;55.61;100549.19;4995570;28;20109;-72
2020/12/08 08:20:00;;;;;;;23.02;10.63;;;;;;;9.37;55.36;100549.16;4988412;28;20341;-71
2020/12/08 08:22:26;;;;;;;22.75;10.85;;;;;;;9.34;55.52;100550.06;4992970;28;20034;-71
2020/12/08 08:24:52;;;;;;;24.95;11.27;;;;;;;9.38;55.58;100552.59;4990308;28;20074;-71
2020/12/08 08:27:17;;;;;;;30.88;12.07;;;;;;;9.64;54.78;100560.88;4985259;28;20027;-71
2020/12/08 08:29:43;;;;;;;23.08;11.30;;;;;;;9.68;54.67;100559.97;4995177;28;20038;-71
2020/12/08 08:32:08;;;;;;;22.40;10.45;;;;;;;9.73;54.83;100555.63;4994749;28;20042;-71
2020/12/08 08:34:34;;;;;;;21.70;10.65;;;;;;;9.81;54.19;100562.44;4992772;28;20090;-72
2020/12/08 08:36:59;;;;;;;24.38;11.48;;;;;;;9.84;54.56;100558.06;4987859;28;20038;-72
2020/12/08 08:39:25;;;;;;;25.48;10.27;;;;;;;9.85;54.44;100564.09;4996802;28;20076;-72
2020/12/08 08:41:52;;;;;;;22.80;10.88;;;;;;;9.82;54.44;100567.53;4994225;28;20316;-73
2020/12/08 08:44:18;;;;;;;24.17;12.15;;;;;;;9.82;54.20;100566.69;5006188;28;20762;-72
2020/12/08 08:46:43;;;;;;;23.83;11.75;;;;;;;9.86;54.32;100561.47;4973356;28;20058;-73
2020/12/08 08:49:14;;;;;;;24.45;10.73;;;;;;;9.90;54.13;100562.31;4985940;28;20403;-70
2020/12/08 08:51:44;;;;;;;21.13;10.68;;;;;;;9.91;54.44;100558.84;4989391;28;20041;-70
2020/12/08 08:54:11;;;;;;;24.63;10.82;;;;;;;10.01;54.07;100564.75;4986852;28;20038;-69
2020/12/08 08:56:37;;;;;;;20.83;11.05;;;;;;;10.14;53.73;100567.13;4992126;28;20030;-70
2020/12/08 08:59:03;;;;;;;20.42;11.30;;;;;;;10.04;54.08;100564.69;4986286;28;20620;-69
2020/12/08 09:01:28;;;;;;;24.17;10.57;;;;;;;10.11;53.97;100566.31;4990982;28;20038;-69
2020/12/08 09:03:54;;;;;;;20.73;10.48;;;;;;;10.13;54.02;100567.16;4986542;28;20144;-71
2020/12/08 09:06:20;;;;;;;22.13;10.95;;;;;;;10.21;53.70;100567.91;4973460;28;20519;-71
2020/12/08 09:08:45;;;;;;;24.60;10.70;;;;;;;10.27;53.64;100578.16;4972117;28;20042;-71
2020/12/08 09:11:11;;;;;;;18.48;10.02;;;;;;;10.04;54.57;100575.88;4985063;28;20038;-71
2020/12/08 09:13:37;;;;;;;28.35;11.63;;;;;;;10.09;54.61;100574.09;4989878;28;20038;-72
2020/12/08 09:16:03;;;;;;;22.60;10.57;;;;;;;10.11;54.51;100577.53;4979557;28;20026;-71
2020/12/08 09:18:28;;;;;;;20.00;10.48;;;;;;;10.03;54.45;100578.50;4983592;28;20032;-71
2020/12/08 09:20:54;;;;;;;17.70;9.93;;;;;;;10.19;54.38;100575.66;4987323;28;20030;-70
2020/12/08 09:23:22;;;;;;;17.92;9.38;;;;;;;10.15;53.77;100579.16;4983078;28;20062;-71
2020/12/08 09:25:49;;;;;;;21.05;10.00;;;;;;;10.19;54.14;100583.41;4986548;28;20045;-72
2020/12/08 09:28:15;;;;;;;24.48;11.65;;;;;;;10.31;54.32;100584.13;4982084;28;20026;-71
2020/12/08 09:30:40;;;;;;;20.52;11.10;;;;;;;10.34;54.20;100579.78;4974818;28;20038;-71
2020/12/08 09:33:06;;;;;;;22.25;11.38;;;;;;;10.35;54.11;100586.66;4982215;28;20046;-71
2020/12/08 09:35:31;;;;;;;19.92;9.70;;;;;;;10.54;53.74;100576.91;4984395;28;20527;-72
2020/12/08 09:37:57;;;;;;;20.65;10.02;;;;;;;10.72;53.82;100572.34;4998359;28;20042;-69
2020/12/08 09:40:23;;;;;;;20.48;10.90;;;;;;;10.86;53.63;100582.44;4987838;28;20038;-70
2020/12/08 09:42:49;;;;;;;17.13;9.27;;;;;;;10.85;53.37;100576.44;4981899;28;20118;-70
2020/12/08 09:45:15;;;;;;;20.30;9.88;;;;;;;10.85;52.75;100584.19;4980979;28;20121;-71
2020/12/08 09:47:40;;;;;;;21.33;9.93;;;;;;;10.88;52.71;100580.69;4983862;28;20553;-72
2020/12/08 09:50:09;;;;;;;20.42;10.10;;;;;;;11.02;52.36;100581.28;4984377;28;20045;-71
2020/12/08 09:52:35;;;;;;;21.45;10.13;;;;;;;10.99;52.44;100584.78;4979294;28;20042;-71
2020/12/08 09:55:01;;;;;;;20.33;9.30;;;;;;;11.04;52.33;100581.28;4985043;28;20038;-72
2020/12/08 09:57:26;;;;;;;17.73;9.30;;;;;;;10.97;52.46;100581.38;4980715;28;20038;-71
2020/12/08 09:59:52;;;;;;;18.95;10.48;;;;;;;10.92;52.84;100587.53;4970670;28;20034;-71
2020/12/08 10:02:19;;;;;;;21.35;10.73;;;;;;;10.98;52.80;100585.69;4984314;28;20044;-71
2020/12/08 10:04:45;;;;;;;17.15;10.35;;;;;;;11.05;53.19;100583.84;4981820;28;20045;-72
2020/12/08 10:07:14;;;;;;;19.88;10.02;;;;;;;11.11;52.81;100582.88;4987571;28;20125;-71
2020/12/08 10:09:44;;;;;;;16.65;8.95;;;;;;;11.16;52.64;100584.50;4985192;28;20026;-70
2020/12/08 10:12:09;;;;;;;19.58;11.25;;;;;;;11.14;52.38;100582.81;4985966;28;20034;-71
2020/12/08 10:14:35;;;;;;;16.95;8.65;;;;;;;11.23;52.33;100582.66;4983580;28;20092;-71
2020/12/08 10:17:02;;;;;;;17.58;9.35;;;;;;;11.29;52.46;100586.84;4974682;28;20476;-71
2020/12/08 10:19:27;;;;;;;22.45;10.18;;;;;;;11.33;52.09;100583.34;4990209;28;20038;-72
2020/12/08 10:21:54;;;;;;;18.35;9.05;;;;;;;11.38;51.68;100577.19;4987092;28;20041;-73
2020/12/08 10:24:20;;;;;;;19.02;9.10;;;;;;;11.26;52.11;100584.34;4991113;28;20068;-70
2020/12/08 10:26:46;;;;;;;22.02;10.20;;;;;;;11.30;52.41;100588.59;4997769;28;20630;-71
2020/12/08 10:29:11;;;;;;;20.35;9.68;;;;;;;11.22;52.91;100597.31;4988893;28;20108;-71
2020/12/08 10:31:37;;;;;;;16.67;9.73;;;;;;;11.15;52.89;100594.88;4994553;28;20069;-71
2020/12/08 10:34:02;;;;;;;16.40;9.05;;;;;;;11.30;52.47;100593.75;4988208;28;20027;-71
2020/12/08 10:36:28;;;;;;;20.80;10.02;;;;;;;11.39;52.39;100585.81;4987336;28;20045;-71
2020/12/08 10:38:54;;;;;;;18.98;10.05;;;;;;;11.25;52.00;100591.22;4990131;28;20054;-72
2020/12/08 10:41:20;;;;;;;17.38;9.05;;;;;;;11.28;51.78;100585.16;4984230;28;20468;-71
2020/12/08 10:43:46;;;;;;;16.90;9.52;;;;;;;11.11;52.30;100588.03;4987636;28;20034;-72
2020/12/08 10:46:12;;;;;;;21.73;9.10;;;;;;;11.56;51.55;100588.06;4984923;28;20035;-73
2020/12/08 10:48:38;;;;;;;19.73;8.82;;;;;;;11.62;51.33;100585.38;4975752;28;20027;-72
2020/12/08 10:51:03;;;;;;;18.35;9.38;;;;;;;11.69;51.42;100583.50;4987798;28;20530;-71
2020/12/08 10:53:29;;;;;;;16.70;9.07;;;;;;;11.76;51.25;100580.75;4990399;28;20559;-71
2020/12/08 10:55:54;;;;;;;17.67;9.43;;;;;;;11.84;51.41;100571.09;4991032;28;20029;-72
2020/12/08 10:58:20;;;;;;;17.05;9.30;;;;;;;11.81;51.36;100573.75;5003573;28;20452;-71
2020/12/08 11:00:45;;;;;;;18.17;8.68;;;;;;;11.80;50.94;100568.59;5003829;28;20058;-71
2020/12/08 11:03:11;;;;;;;17.35;9.13;;;;;;;11.73;50.81;100578.22;4991465;28;20042;-71
2020/12/08 11:05:37;;;;;;;18.20;10.13;;;;;;;11.72;51.07;100573.94;4995003;28;20108;-71
2020/12/08 11:08:02;;;;;;;16.75;8.55;;;;;;;11.48;51.25;100574.44;4993893;28;20065;-71
2020/12/08 11:10:28;;;;;;;18.65;9.73;;;;;;;11.55;50.82;100573.44;5000904;28;20720;-71
2020/12/08 11:12:53;;;;;;;16.05;8.77;;;;;;;11.52;51.36;100576.06;4995590;28;20411;-70
2020/12/08 11:15:19;;;;;;;17.38;8.57;;;;;;;11.54;51.34;100574.28;4988401;28;20033;-71
2020/12/08 11:17:44;;;;;;;18.88;8.85;;;;;;;11.59;51.88;100575.09;4994294;28;20116;-70